Time;durP1;ratioP1;P1;durP2;ratioP2;P2;SDS_P1;SDS_P2;PMS_P1;PMS_P2;Temp;Humidity;BMP_temperature;BMP_pressure;BME280_temperature;BME280_humidity;BME280_pressure;Samples;Min_cycle;Max_cycle;Signal;HPM_P1;HPM_P2
2021/10/09 00:02:08;;;;;;;22.53;15.90;;;;;;;11.02;100.00;102530.34;4981318;28;20224;-74
2021/10/09 00:04:36;;;;;;;20.37;15.53;;;;;;;10.94;100.00;102525.22;4954128;28;20186;-73
2021/10/09 00:07:02;;;;;;;23.17;16.53;;;;;;;11.00;100.00;102535.19;4951548;28;20217;-74
2021/10/09 00:09:30;;;;;;;20.53;15.30;;;;;;;10.96;100.00;102536.72;4976027;28;20221;-72
2021/10/09 00:11:58;;;;;;;18.23;16.27;;;;;;;10.89;100.00;102530.53;4963983;28;20222;-74
2021/10/09 00:14:23;;;;;;;22.53;15.73;;;;;;;10.97;100.00;102538.34;4999677;28;20711;-74
2021/10/09 00:16:49;;;;;;;22.43;15.60;;;;;;;10.91;100.00;102529.22;4999843;28;20691;-74
2021/10/09 00:19:16;;;;;;;22.03;16.20;;;;;;;10.90;100.00;102534.91;4983513;28;20193;-75
2021/10/09 00:21:44;;;;;;;27.10;16.97;;;;;;;10.89;100.00;102525.91;4982552;28;20225;-74
2021/10/09 00:24:18;;;;;;;21.00;16.07;;;;;;;10.86;100.00;102530.97;4969872;28;20213;-74
2021/10/09 00:26:46;;;;;;;19.23;15.07;;;;;;;10.93;100.00;102531.72;4981470;28;20225;-74
2021/10/09 00:29:14;;;;;;;22.40;16.00;;;;;;;10.79;100.00;102519.38;4994800;28;20241;-74
2021/10/09 00:31:40;;;;;;;20.77;16.27;;;;;;;10.75;100.00;102523.59;4961592;28;20233;-74
2021/10/09 00:34:05;;;;;;;20.73;15.23;;;;;;;10.73;100.00;102520.25;4971441;28;20187;-74
2021/10/09 00:36:31;;;;;;;20.43;15.80;;;;;;;10.72;100.00;102524.03;4958777;28;20210;-75
2021/10/09 00:39:01;;;;;;;21.90;15.17;;;;;;;10.74;100.00;102527.38;4941730;28;20570;-75
2021/10/09 00:41:33;;;;;;;20.50;14.27;;;;;;;10.63;100.00;102525.41;4957600;28;20714;-75
2021/10/09 00:44:11;;;;;;;17.63;14.23;;;;;;;10.70;100.00;102523.44;4952066;28;20185;-72
2021/10/09 00:46:38;;;;;;;23.67;15.63;;;;;;;10.68;100.00;102522.84;4959525;28;20229;-73
2021/10/09 00:49:07;;;;;;;19.10;14.23;;;;;;;10.61;100.00;102522.09;4960146;28;20300;-73
2021/10/09 00:51:35;;;;;;;20.20;14.30;;;;;;;10.64;100.00;102523.50;4962931;28;20252;-72
2021/10/09 00:54:03;;;;;;;18.27;15.10;;;;;;;10.53;100.00;102532.41;4976020;28;20186;-74
2021/10/09 00:56:28;;;;;;;19.57;14.63;;;;;;;10.55;100.00;102527.59;4943398;28;20218;-74
2021/10/09 00:58:57;;;;;;;19.30;14.70;;;;;;;10.46;100.00;102529.78;4971545;28;20712;-74
2021/10/09 01:01:23;;;;;;;16.97;13.53;;;;;;;10.52;100.00;102526.16;4978510;28;20228;-74
2021/10/09 01:03:51;;;;;;;20.00;13.90;;;;;;;10.48;100.00;102527.66;4968030;28;20190;-75
2021/10/09 01:06:19;;;;;;;15.97;13.87;;;;;;;10.48;100.00;102526.84;4945864;28;20225;-73
2021/10/09 01:08:44;;;;;;;17.40;14.40;;;;;;;10.41;100.00;102526.91;4940069;28;20323;-74
2021/10/09 01:11:10;;;;;;;21.77;15.20;;;;;;;10.45;100.00;102530.81;4939985;28;20234;-75
2021/10/09 01:13:36;;;;;;;21.03;15.17;;;;;;;10.38;100.00;102527.38;4955226;28;20201;-75
2021/10/09 01:16:02;;;;;;;19.47;14.63;;;;;;;10.35;100.00;102534.28;4963092;28;20252;-74
2021/10/09 01:18:30;;;;;;;18.30;14.40;;;;;;;10.28;100.00;102525.41;4994961;28;20243;-74
2021/10/09 01:21:02;;;;;;;18.83;14.27;;;;;;;10.26;100.00;102532.94;5009633;28;20670;-74
2021/10/09 01:23:38;;;;;;;19.30;14.33;;;;;;;10.24;100.00;102519.59;4979487;28;20207;-73
2021/10/09 01:26:07;;;;;;;20.43;14.27;;;;;;;10.28;100.00;102530.84;4943505;28;20268;-73
2021/10/09 01:28:38;;;;;;;19.90;14.47;;;;;;;10.24;100.00;102518.75;4964690;28;20177;-74
2021/10/09 01:31:07;;;;;;;20.40;15.03;;;;;;;10.18;100.00;102516.94;4979772;28;20259;-73
2021/10/09 01:33:33;;;;;;;18.77;14.47;;;;;;;10.11;100.00;102516.19;4991441;28;20236;-73
2021/10/09 01:35:59;;;;;;;21.70;14.93;;;;;;;10.15;100.00;102511.97;4966005;28;20221;-74
2021/10/09 01:38:48;;;;;;;17.97;14.67;;;;;;;10.03;100.00;102519.97;4966259;28;20280;-74
2021/10/09 01:41:18;;;;;;;21.47;14.53;;;;;;;10.02;100.00;102509.38;4978620;28;20715;-74
2021/10/09 01:43:46;;;;;;;21.93;14.80;;;;;;;10.06;100.00;102516.00;4955771;28;20190;-73
2021/10/09 01:46:15;;;;;;;18.67;14.90;;;;;;;10.00;100.00;102522.34;4939069;28;20349;-73
2021/10/09 01:48:42;;;;;;;19.93;14.90;;;;;;;9.96;100.00;102515.66;4947351;28;20231;-73
2021/10/09 01:51:15;;;;;;;17.23;14.23;;;;;;;9.92;100.00;102514.47;4955431;28;20222;-74
2021/10/09 01:53:41;;;;;;;19.90;14.57;;;;;;;9.96;100.00;102510.25;4957426;28;20200;-74
2021/10/09 01:56:10;;;;;;;18.03;14.67;;;;;;;9.93;100.00;102513.41;4963655;28;20241;-73
2021/10/09 01:58:37;;;;;;;19.87;15.10;;;;;;;9.94;100.00;102506.09;4942538;28;20437;-74
2021/10/09 02:01:06;;;;;;;19.57;15.00;;;;;;;9.87;100.00;102506.16;4978388;28;20654;-74
2021/10/09 02:03:31;;;;;;;17.60;13.93;;;;;;;9.88;100.00;102513.22;4976515;28;20209;-74
2021/10/09 02:05:59;;;;;;;19.37;15.03;;;;;;;9.79;100.00;102503.69;4962727;28;20601;-74
2021/10/09 02:08:24;;;;;;;18.53;14.50;;;;;;;9.72;100.00;102513.75;4953956;28;20266;-74
2021/10/09 02:11:02;;;;;;;19.27;14.30;;;;;;;9.78;100.00;102510.19;5008640;28;20244;-74
2021/10/09 02:24:10;;;;;;;16.50;13.93;;;;;;;9.60;100.00;102506.59;4966427;28;20662;-74
2021/10/09 02:27:18;;;;;;;18.17;13.90;;;;;;;9.47;100.00;102509.41;4958878;28;20736;-73
2021/10/09 02:29:45;;;;;;;18.70;13.83;;;;;;;9.48;100.00;102507.50;4964758;28;20272;-73
2021/10/09 02:32:11;;;;;;;23.97;15.10;;;;;;;9.38;100.00;102504.47;4963790;28;20221;-73
2021/10/09 02:34:39;;;;;;;20.17;14.27;;;;;;;9.43;100.00;102513.59;4990721;28;20197;-73
2021/10/09 02:37:07;;;;;;;22.60;14.83;;;;;;;9.33;100.00;102507.81;4964781;28;20225;-74
2021/10/09 02:39:39;;;;;;;18.70;14.17;;;;;;;9.39;100.00;102511.53;4970217;28;20192;-74
2021/10/09 02:42:05;;;;;;;19.73;14.10;;;;;;;9.33;100.00;102512.41;4967267;28;20225;-73
2021/10/09 02:44:31;;;;;;;24.27;14.50;;;;;;;9.33;100.00;102510.53;4981162;28;20188;-74
2021/10/09 02:47:01;;;;;;;25.63;14.83;;;;;;;9.37;100.00;102508.22;4979649;28;20706;-73
2021/10/09 02:49:32;;;;;;;16.63;13.10;;;;;;;9.29;100.00;102516.63;4983599;28;20185;-74
2021/10/09 02:52:02;;;;;;;19.27;13.27;;;;;;;9.22;100.00;102511.22;4968442;28;20268;-72
2021/10/09 02:54:30;;;;;;;18.57;13.43;;;;;;;9.25;100.00;102504.56;4983620;28;20246;-72
2021/10/09 02:56:59;;;;;;;20.07;13.80;;;;;;;9.17;100.00;102507.50;4964826;28;20758;-73
2021/10/09 02:59:25;;;;;;;22.17;14.03;;;;;;;9.19;100.00;102504.56;4949297;28;20186;-73
2021/10/09 03:01:50;;;;;;;21.27;13.40;;;;;;;9.10;100.00;102498.59;4967781;28;20262;-75
2021/10/09 03:04:19;;;;;;;20.10;13.10;;;;;;;9.12;100.00;102503.78;4993051;28;20582;-74
2021/10/09 03:06:48;;;;;;;18.47;13.47;;;;;;;9.09;100.00;102502.34;4955567;28;20693;-74
2021/10/09 03:09:20;;;;;;;20.33;13.30;;;;;;;9.09;100.00;102498.81;4964692;28;20225;-73
2021/10/09 03:11:48;;;;;;;21.87;13.20;;;;;;;9.05;100.00;102503.84;4995415;28;20230;-73
2021/10/09 03:14:14;;;;;;;18.23;12.23;;;;;;;9.07;100.00;102506.34;4948321;28;20540;-73
2021/10/09 03:16:43;;;;;;;19.13;13.07;;;;;;;9.03;100.00;102510.50;4963836;28;20224;-74
2021/10/09 03:19:10;;;;;;;19.73;12.80;;;;;;;9.07;100.00;102509.88;4977237;28;20181;-75
2021/10/09 03:21:41;;;;;;;17.30;13.37;;;;;;;8.97;100.00;102512.22;4945171;28;20252;-75
2021/10/09 03:24:08;;;;;;;15.73;12.60;;;;;;;8.96;100.00;102510.56;4967529;28;20717;-73
2021/10/09 03:26:37;;;;;;;21.00;13.50;;;;;;;8.97;100.00;102514.94;5012138;28;20221;-72
2021/10/09 03:29:05;;;;;;;17.63;13.00;;;;;;;8.91;100.00;102518.50;4997565;28;20176;-73
2021/10/09 03:31:34;;;;;;;16.93;12.57;;;;;;;8.73;100.00;102501.28;4970620;28;20217;-74
2021/10/09 03:34:07;;;;;;;16.10;12.13;;;;;;;8.87;100.00;102508.31;4994723;28;20198;-74
2021/10/09 03:36:33;;;;;;;15.33;12.77;;;;;;;8.86;100.00;102512.91;4964111;28;20213;-72
2021/10/09 03:39:03;;;;;;;17.67;12.80;;;;;;;8.77;100.00;102509.81;4979489;28;20182;-72
2021/10/09 03:41:30;;;;;;;20.60;13.17;;;;;;;8.76;100.00;102508.16;4964117;28;20229;-72
2021/10/09 03:43:58;;;;;;;20.17;13.00;;;;;;;8.81;100.00;102508.31;4961587;28;20551;-73
2021/10/09 03:46:27;;;;;;;19.77;12.93;;;;;;;8.81;100.00;102511.88;4970229;28;20239;-74
2021/10/09 03:49:07;;;;;;;16.97;12.77;;;;;;;8.82;100.00;102513.53;4965803;28;20181;-74
2021/10/09 03:54:18;;;;;;;17.43;12.57;;;;;;;8.74;100.00;102515.69;4957934;28;20194;-74
2021/10/09 03:56:44;;;;;;;18.13;12.80;;;;;;;8.74;100.00;102515.69;4963303;28;20213;-72
2021/10/09 03:59:10;;;;;;;18.97;12.90;;;;;;;8.70;100.00;102515.28;4946597;28;20567;-74
2021/10/09 04:01:36;;;;;;;19.37;12.77;;;;;;;8.59;100.00;102512.38;4976271;28;20240;-72
2021/10/09 04:04:05;;;;;;;16.37;12.07;;;;;;;8.49;100.00;102512.00;4944594;28;20655;-75
2021/10/09 04:06:31;;;;;;;19.73;12.57;;;;;;;8.51;100.00;102515.31;4989423;28;20220;-75
2021/10/09 04:08:59;;;;;;;20.97;12.70;;;;;;;8.56;100.00;102518.25;4960379;28;20182;-74
2021/10/09 04:11:28;;;;;;;17.70;13.03;;;;;;;8.58;100.00;102522.38;4960353;28;20602;-72
2021/10/09 04:13:57;;;;;;;16.10;13.20;;;;;;;8.50;100.00;102517.22;4959583;28;20782;-73
2021/10/09 04:16:22;;;;;;;17.13;12.60;;;;;;;8.60;100.00;102523.00;4960426;28;20228;-72
2021/10/09 04:18:50;;;;;;;21.17;12.87;;;;;;;8.47;100.00;102524.94;4978809;28;20184;-74
2021/10/09 04:21:18;;;;;;;19.83;12.77;;;;;;;8.50;100.00;102524.50;4975694;28;20260;-73
2021/10/09 04:23:49;;;;;;;17.40;11.97;;;;;;;8.50;100.00;102522.63;4993028;28;20216;-74
2021/10/09 04:26:18;;;;;;;17.37;12.87;;;;;;;8.50;100.00;102513.69;4978614;28;20236;-74
2021/10/09 04:28:44;;;;;;;20.30;12.43;;;;;;;8.54;100.00;102523.03;4979085;28;20247;-74
2021/10/09 04:31:09;;;;;;;17.20;12.50;;;;;;;8.52;100.00;102522.44;4973959;28;20931;-74
2021/10/09 04:33:40;;;;;;;16.67;12.80;;;;;;;8.47;100.00;102522.22;4941098;28;20650;-73
2021/10/09 04:36:08;;;;;;;16.47;12.17;;;;;;;8.34;100.00;102524.97;4937926;28;20209;-74
2021/10/09 04:38:40;;;;;;;18.73;12.57;;;;;;;8.37;100.00;102519.13;4941413;28;20185;-73
2021/10/09 04:41:08;;;;;;;18.17;11.63;;;;;;;8.36;100.00;102517.47;4940859;28;20222;-73
2021/10/09 04:43:35;;;;;;;14.33;11.83;;;;;;;8.38;100.00;102518.06;4963664;28;20216;-73
2021/10/09 04:46:00;;;;;;;17.90;12.10;;;;;;;8.28;100.00;102515.00;4962281;28;20710;-73
2021/10/09 04:48:28;;;;;;;18.43;12.40;;;;;;;8.33;100.00;102512.47;4977072;28;20594;-73
2021/10/09 04:50:58;;;;;;;14.87;12.20;;;;;;;8.32;100.00;102510.81;4959860;28;20226;-74
2021/10/09 04:53:23;;;;;;;18.40;12.37;;;;;;;8.33;100.00;102507.03;4977126;28;20699;-73
2021/10/09 04:55:51;;;;;;;14.53;11.63;;;;;;;8.25;100.00;102515.41;4978024;28;20231;-73
2021/10/09 04:58:21;;;;;;;18.10;10.90;;;;;;;8.25;100.00;102520.81;4992153;28;20185;-74
2021/10/09 05:00:52;;;;;;;17.43;11.23;;;;;;;8.25;100.00;102523.53;4944596;28;20222;-73
2021/10/09 05:03:21;;;;;;;17.97;11.27;;;;;;;8.24;100.00;102530.00;4995552;28;20216;-73
2021/10/09 05:05:47;;;;;;;18.20;11.90;;;;;;;8.19;100.00;102521.66;4975195;28;20218;-74
2021/10/09 05:08:16;;;;;;;19.33;12.23;;;;;;;8.22;100.00;102523.13;4943204;28;20182;-73
2021/10/09 05:10:43;;;;;;;19.07;11.77;;;;;;;8.15;100.00;102523.13;4939924;28;20301;-73
2021/10/09 05:13:13;;;;;;;17.40;12.10;;;;;;;8.18;100.00;102528.13;4954025;28;20202;-75
2021/10/09 05:15:45;;;;;;;18.03;11.33;;;;;;;8.17;100.00;102529.16;4943657;28;20218;-74
2021/10/09 05:18:21;;;;;;;19.67;11.87;;;;;;;8.14;100.00;102521.47;4954497;28;20193;-73
2021/10/09 05:20:47;;;;;;;17.47;11.37;;;;;;;8.01;100.00;102522.50;4974772;28;20252;-74
2021/10/09 05:23:21;;;;;;;14.40;11.50;;;;;;;8.03;100.00;102526.66;4972253;28;20205;-74
2021/10/09 05:25:54;;;;;;;18.00;10.80;;;;;;;8.03;100.00;102526.66;4955737;28;20268;-74
2021/10/09 05:28:31;;;;;;;15.40;11.27;;;;;;;8.01;100.00;102523.34;4973954;28;20186;-74
2021/10/09 05:31:01;;;;;;;20.13;11.17;;;;;;;7.92;100.00;102523.75;4990607;28;20389;-74
2021/10/09 05:36:01;;;;;;;16.93;11.30;;;;;;;7.91;100.00;102530.19;4958358;28;20217;-74
2021/10/09 05:38:29;;;;;;;16.33;11.73;;;;;;;7.84;100.00;102537.50;4984621;28;20674;-74
2021/10/09 05:40:59;;;;;;;19.80;11.53;;;;;;;7.92;100.00;102534.59;4973032;28;20217;-74
2021/10/09 05:43:31;;;;;;;18.30;11.70;;;;;;;7.89;100.00;102532.28;4958655;28;20206;-74
2021/10/09 05:46:00;;;;;;;16.97;11.33;;;;;;;7.91;100.00;102535.59;4957797;28;20221;-73
2021/10/09 05:48:33;;;;;;;14.40;11.00;;;;;;;7.87;100.00;102534.38;4962652;28;20190;-73
2021/10/09 05:59:26;;;;;;;14.43;10.83;;;;;;;7.84;100.00;102537.50;4975154;28;20610;-73
2021/10/09 06:32:24;;;;;;;16.03;10.53;;;;;;;8.30;100.00;102537.25;4960194;28;20312;-73
2021/10/09 06:38:27;;;;;;;15.00;9.83;;;;;;;8.32;100.00;102547.88;4956523;28;20722;-75
2021/10/09 06:49:20;;;;;;;14.37;10.30;;;;;;;8.36;100.00;102566.19;4987241;28;20574;-72
2021/10/09 07:00:10;;;;;;;14.07;9.57;;;;;;;8.71;100.00;102575.69;4995839;28;20567;-74
2021/10/09 07:02:40;;;;;;;15.87;9.87;;;;;;;8.64;100.00;102580.28;4975106;28;20662;-73
2021/10/09 07:05:09;;;;;;;15.93;9.90;;;;;;;8.67;100.00;102582.59;4982611;28;20198;-73
2021/10/09 07:07:56;;;;;;;15.10;9.57;;;;;;;8.73;100.00;102585.25;4960799;28;20181;-75
2021/10/09 07:10:24;;;;;;;12.67;9.13;;;;;;;8.84;100.00;102592.72;4988006;28;20198;-75
2021/10/09 07:12:52;;;;;;;14.33;10.07;;;;;;;8.96;100.00;102591.84;4939260;28;20209;-74
2021/10/09 07:15:23;;;;;;;17.50;9.90;;;;;;;8.97;100.00;102589.97;4958700;28;20192;-73
2021/10/09 07:17:49;;;;;;;13.20;9.60;;;;;;;9.07;100.00;102591.19;4974056;28;20213;-73
2021/10/09 07:20:17;;;;;;;13.33;9.90;;;;;;;9.03;100.00;102587.25;5006848;28;20181;-73
2021/10/09 07:22:48;;;;;;;11.83;9.33;;;;;;;9.03;100.00;102598.09;5013698;28;20240;-74
2021/10/09 07:25:18;;;;;;;12.33;9.23;;;;;;;9.15;100.00;102593.63;4985381;28;20224;-74
2021/10/09 07:27:46;;;;;;;12.17;8.70;;;;;;;9.20;100.00;102593.84;4962111;28;20268;-73
2021/10/09 07:30:12;;;;;;;16.47;10.20;;;;;;;9.37;100.00;102603.13;4988008;28;20204;-73
2021/10/09 07:32:40;;;;;;;17.57;10.07;;;;;;;9.33;100.00;102604.63;4997058;28;20675;-74
2021/10/09 07:35:06;;;;;;;13.57;9.83;;;;;;;9.32;100.00;102600.22;5000227;28;20800;-73
2021/10/09 07:37:32;;;;;;;16.47;9.67;;;;;;;9.36;100.00;102604.19;4993311;28;20186;-74
2021/10/09 07:39:57;;;;;;;14.80;10.20;;;;;;;9.52;100.00;102609.91;5001231;28;20181;-73
2021/10/09 07:42:23;;;;;;;16.23;9.67;;;;;;;9.74;100.00;102611.25;4979918;28;20228;-73
2021/10/09 07:44:51;;;;;;;17.30;9.97;;;;;;;9.64;100.00;102614.44;4987784;28;20269;-73
2021/10/09 07:47:21;;;;;;;14.43;9.23;;;;;;;9.72;100.00;102616.88;4941086;28;20230;-73
2021/10/09 07:49:47;;;;;;;15.00;9.73;;;;;;;9.85;100.00;102616.78;4998461;28;20185;-73
2021/10/09 07:52:13;;;;;;;13.90;9.90;;;;;;;9.90;100.00;102608.00;4995859;28;20810;-73
2021/10/09 07:54:43;;;;;;;13.23;9.20;;;;;;;10.01;100.00;102610.88;4993130;28;20240;-73
2021/10/09 07:57:12;;;;;;;12.07;8.53;;;;;;;9.90;100.00;102611.53;4992588;28;20226;-74
2021/10/09 07:59:40;;;;;;;16.60;10.07;;;;;;;9.85;100.00;102610.53;4979452;28;20268;-74
2021/10/09 08:02:10;;;;;;;13.40;9.13;;;;;;;9.94;100.00;102612.78;5012146;28;20232;-73
2021/10/09 08:04:36;;;;;;;14.27;9.27;;;;;;;10.03;100.00;102606.03;5020660;28;20194;-74
2021/10/09 08:07:04;;;;;;;14.63;9.07;;;;;;;9.95;100.00;102598.19;4975863;28;20271;-73
2021/10/09 08:09:34;;;;;;;14.17;9.17;;;;;;;10.12;100.00;102604.72;4976705;28;21297;-73
2021/10/09 08:11:59;;;;;;;13.03;9.23;;;;;;;10.26;100.00;102603.56;5011468;28;20232;-75
2021/10/09 08:14:30;;;;;;;14.33;9.57;;;;;;;10.41;100.00;102604.88;4996814;28;20177;-75
2021/10/09 08:16:58;;;;;;;14.80;9.33;;;;;;;10.31;100.00;102601.84;4975958;28;20225;-74
2021/10/09 08:19:26;;;;;;;15.83;9.67;;;;;;;10.46;100.00;102594.19;4976492;28;20572;-73
2021/10/09 08:21:52;;;;;;;16.60;9.30;;;;;;;10.58;100.00;102593.19;4994126;28;20239;-73
2021/10/09 08:40:18;;;;;;;14.90;8.67;;;;;;;11.12;100.00;102590.44;4978604;28;20809;-74
2021/10/09 08:42:44;;;;;;;13.87;8.20;;;;;;;11.29;100.00;102593.16;4995329;28;20204;-73
2021/10/09 08:45:13;;;;;;;13.33;8.33;;;;;;;11.57;100.00;102590.69;4978347;28;20553;-74
2021/10/09 08:47:39;;;;;;;12.40;8.37;;;;;;;11.30;100.00;102593.97;4960197;28;20197;-74
2021/10/09 08:50:08;;;;;;;13.47;9.07;;;;;;;11.45;100.00;102600.72;4959903;28;20189;-73
2021/10/09 08:52:44;;;;;;;15.07;7.83;;;;;;;11.42;100.00;102609.31;4973989;28;20198;-73
2021/10/09 08:55:24;;;;;;;13.70;8.43;;;;;;;11.40;100.00;102605.97;4925363;28;20276;-74
2021/10/09 08:57:54;;;;;;;13.27;8.33;;;;;;;11.64;100.00;102608.59;4937347;29;20214;-74
2021/10/09 09:00:47;;;;;;;10.73;8.37;;;;;;;11.57;100.00;102613.31;4937413;28;20179;-75
2021/10/09 09:03:17;;;;;;;10.77;7.70;;;;;;;11.77;100.00;102604.84;4963090;28;20228;-73
2021/10/09 09:06:03;;;;;;;15.93;8.27;;;;;;;11.98;100.00;102600.53;4928505;28;20284;-75
2021/10/09 09:08:49;;;;;;;12.83;7.70;;;;;;;11.74;100.00;102595.25;4957008;28;20233;-74
2021/10/09 09:25:26;;;;;;;11.67;7.77;;;;;;;12.13;100.00;102591.91;4978304;28;20190;-74
2021/10/09 09:25:59;;;;;;;12.57;8.13;;;;;;;12.19;100.00;102585.50;4996605;28;20601;-73
2021/10/09 09:31:24;;;;;;;15.13;7.93;;;;;;;12.79;100.00;102578.53;4941021;28;20238;-73
2021/10/09 09:34:14;;;;;;;12.10;7.17;;;;;;;12.64;96.24;102579.25;4979839;28;20584;-74
2021/10/09 09:37:00;;;;;;;11.50;7.10;;;;;;;12.27;96.19;102580.56;4994882;28;20221;-74
2021/10/09 09:39:37;;;;;;;12.97;7.03;;;;;;;12.49;98.32;102577.00;4949624;28;20201;-73
2021/10/09 09:42:03;;;;;;;12.10;6.83;;;;;;;12.54;98.88;102576.25;4953068;28;20581;-73
2021/10/09 09:44:34;;;;;;;11.87;6.97;;;;;;;12.65;96.33;102575.44;4963502;28;20196;-76
2021/10/09 09:47:09;;;;;;;13.23;6.90;;;;;;;12.91;94.43;102570.31;4986305;28;20464;-72
2021/10/09 09:49:37;;;;;;;9.23;7.30;;;;;;;12.99;95.09;102568.03;4976228;28;20186;-74
2021/10/09 09:52:03;;;;;;;11.57;6.53;;;;;;;13.03;90.79;102569.22;4962820;28;20224;-73
2021/10/09 09:54:32;;;;;;;13.23;6.93;;;;;;;13.18;90.61;102566.78;4979731;28;20178;-73
2021/10/09 09:57:01;;;;;;;10.63;6.27;;;;;;;13.32;89.51;102574.47;5002643;28;20245;-71
2021/10/09 09:59:33;;;;;;;13.23;6.40;;;;;;;13.45;92.60;102578.81;4940926;28;20656;-74
2021/10/09 10:02:03;;;;;;;9.77;5.90;;;;;;;13.23;87.29;102575.09;4934677;28;20229;-73
2021/10/09 10:04:33;;;;;;;10.07;5.77;;;;;;;13.32;85.14;102581.81;4993096;28;20577;-72
2021/10/09 10:07:00;;;;;;;9.00;5.93;;;;;;;13.46;86.97;102582.13;4952387;28;20213;-73
2021/10/09 10:09:29;;;;;;;9.63;5.87;;;;;;;13.57;84.79;102583.97;5005927;28;20197;-74
2021/10/09 10:12:02;;;;;;;11.10;5.83;;;;;;;13.62;85.92;102589.50;5001207;28;20233;-74
2021/10/09 10:14:30;;;;;;;8.20;5.87;;;;;;;13.64;79.64;102586.53;4953654;28;20441;-73
2021/10/09 10:16:59;;;;;;;12.00;5.43;;;;;;;14.09;81.56;102582.75;4956328;28;20220;-72
2021/10/09 10:19:54;;;;;;;8.77;5.93;;;;;;;13.95;80.21;102584.09;5012954;28;20177;-72
2021/10/09 10:22:38;;;;;;;10.33;5.63;;;;;;;14.42;82.99;102583.53;5005819;28;20521;-73
2021/10/09 10:25:29;;;;;;;9.57;6.00;;;;;;;13.95;78.71;102586.81;4959033;28;20281;-73
2021/10/09 10:28:07;;;;;;;8.80;5.63;;;;;;;14.14;78.01;102583.66;4968439;28;20231;-73
2021/10/09 10:30:38;;;;;;;10.83;5.90;;;;;;;14.36;80.66;102576.34;4994411;28;20228;-73
2021/10/09 10:33:06;;;;;;;8.23;5.20;;;;;;;14.31;76.70;102579.81;4984624;28;20205;-73
2021/10/09 10:35:31;;;;;;;9.40;5.70;;;;;;;14.66;82.40;102574.88;4991694;28;20232;-73
2021/10/09 10:38:06;;;;;;;10.90;6.40;;;;;;;14.68;76.12;102572.72;4975502;28;20240;-72
2021/10/09 10:41:04;;;;;;;6.17;5.33;;;;;;;14.49;75.46;102579.56;4959555;28;20242;-73
2021/10/09 10:56:56;;;;;;;8.63;4.80;;;;;;;15.29;65.27;102554.94;5000073;28;20219;-72
2021/10/09 10:59:31;;;;;;;6.60;4.50;;;;;;;15.23;64.58;102555.94;5000271;28;20269;-73
2021/10/09 11:02:15;;;;;;;9.53;4.90;;;;;;;15.35;62.84;102553.91;4978780;28;20239;-73
2021/10/09 11:05:03;;;;;;;7.77;4.20;;;;;;;15.30;62.64;102551.09;4988603;28;20635;-74
2021/10/09 11:07:37;;;;;;;7.40;4.60;;;;;;;15.23;61.99;102545.00;4995758;28;20217;-72
2021/10/09 11:10:07;;;;;;;6.73;3.97;;;;;;;15.33;59.71;102542.38;5031404;28;20202;-73
2021/10/09 11:12:39;;;;;;;6.77;3.73;;;;;;;15.39;57.72;102546.81;4995929;28;20300;-73
2021/10/09 11:15:22;;;;;;;6.57;4.37;;;;;;;15.70;57.86;102546.88;4996680;28;20225;-73
2021/10/09 11:17:58;;;;;;;5.47;3.83;;;;;;;15.73;58.03;102556.47;5012893;28;20189;-72
2021/10/09 11:20:28;;;;;;;6.13;3.90;;;;;;;15.55;56.09;102543.16;4993836;28;20258;-73
2021/10/09 11:22:59;;;;;;;8.57;4.20;;;;;;;15.89;55.13;102534.44;4996329;28;20263;-74
2021/10/09 11:25:32;;;;;;;5.65;3.75;;;;;;;15.78;55.55;102539.00;5014311;28;20307;-73
2021/10/09 11:28:02;;;;;;;4.90;3.50;;;;;;;15.86;54.81;102538.53;4996325;28;20259;-73
2021/10/09 11:30:28;;;;;;;6.90;3.80;;;;;;;16.03;56.88;102535.66;4962193;28;20229;-72
2021/10/09 11:32:54;;;;;;;7.03;3.97;;;;;;;16.09;54.36;102535.41;4978302;28;20200;-73
2021/10/09 11:35:33;;;;;;;6.13;3.50;;;;;;;15.95;53.13;102527.91;4964891;28;20212;-72
2021/10/09 11:38:17;;;;;;;6.37;3.80;;;;;;;15.87;50.50;102531.94;4995601;28;20707;-72
2021/10/09 11:43:30;;;;;;;4.47;3.30;;;;;;;16.46;50.53;102522.53;4996810;28;20205;-72
2021/10/09 11:46:17;;;;;;;6.57;3.63;;;;;;;16.63;49.53;102522.09;5012996;28;20660;-75
2021/10/09 11:56:44;;;;;;;7.00;3.35;;;;;;;16.80;48.90;102510.94;5013594;28;20219;-72
2021/10/09 11:59:10;;;;;;;5.47;3.38;;;;;;;16.59;48.84;102506.41;5006725;28;20178;-73
2021/10/09 12:01:44;;;;;;;6.88;3.20;;;;;;;16.68;47.45;102511.16;4960965;28;20225;-73
2021/10/09 12:04:15;;;;;;;5.82;3.28;;;;;;;16.39;46.62;102506.34;4992819;28;20281;-72
2021/10/09 12:06:50;;;;;;;5.22;3.30;;;;;;;16.44;44.97;102505.53;4986207;28;20227;-72
2021/10/09 12:09:31;;;;;;;3.95;2.92;;;;;;;16.85;45.45;102492.56;4983199;28;20215;-72
2021/10/09 12:12:11;;;;;;;6.43;3.35;;;;;;;16.90;46.72;102500.81;5014172;28;20247;-74
2021/10/09 12:14:37;;;;;;;5.65;3.65;;;;;;;16.64;46.21;102492.72;5004582;28;20549;-72
2021/10/09 12:17:05;;;;;;;5.68;4.03;;;;;;;16.98;47.37;102492.06;5004356;28;20213;-72
2021/10/09 12:19:30;;;;;;;7.22;3.50;;;;;;;16.72;46.30;102493.06;4960237;28;20208;-72
2021/10/09 12:22:08;;;;;;;6.40;3.50;;;;;;;16.74;45.58;102490.03;4990022;28;20313;-72
2021/10/09 12:24:46;;;;;;;6.60;3.30;;;;;;;16.68;44.64;102494.69;5006808;28;20256;-73
2021/10/09 12:27:17;;;;;;;5.88;3.42;;;;;;;16.74;45.49;102499.09;5013007;28;20224;-73
2021/10/09 12:30:05;;;;;;;6.72;3.15;;;;;;;17.36;44.99;102501.53;5002752;28;20190;-72
2021/10/09 12:32:43;;;;;;;8.23;3.63;;;;;;;17.19;43.35;102494.63;4974463;28;20341;-73
2021/10/09 12:35:10;;;;;;;5.57;3.53;;;;;;;17.09;41.79;102499.25;4974878;28;20280;-72
2021/10/09 12:37:37;;;;;;;8.50;3.40;;;;;;;17.30;43.46;102489.97;4993962;28;20699;-72
2021/10/09 12:40:07;;;;;;;7.03;3.33;;;;;;;17.48;42.44;102484.78;4985852;28;20181;-71
2021/10/09 12:42:32;;;;;;;3.53;2.95;;;;;;;17.36;41.62;102487.81;5013448;28;20220;-72
2021/10/09 12:44:58;;;;;;;5.97;3.60;;;;;;;17.32;42.42;102487.78;5005717;28;20567;-72
2021/10/09 12:47:26;;;;;;;4.63;3.30;;;;;;;17.04;41.12;102474.50;4975697;28;20230;-74
2021/10/09 12:49:51;;;;;;;5.78;3.53;;;;;;;16.71;40.49;102474.94;4983059;28;20613;-72
2021/10/09 12:52:17;;;;;;;5.68;3.42;;;;;;;16.71;42.19;102468.63;4995757;28;20229;-73
2021/10/09 12:54:43;;;;;;;5.13;3.03;;;;;;;16.79;42.51;102466.16;4988656;28;20182;-71
2021/10/09 12:57:09;;;;;;;7.82;3.75;;;;;;;16.72;41.47;102467.50;4973291;28;20222;-73
2021/10/09 12:59:39;;;;;;;6.65;3.10;;;;;;;16.99;41.84;102474.47;4994863;28;20277;-73
2021/10/09 13:02:06;;;;;;;5.88;2.83;;;;;;;17.10;43.27;102468.72;4996005;28;20247;-73
2021/10/09 13:04:34;;;;;;;5.80;3.70;;;;;;;17.11;44.91;102464.09;5002674;28;20225;-73
2021/10/09 13:07:00;;;;;;;6.00;3.78;;;;;;;17.08;44.85;102459.94;4975491;28;20381;-72
2021/10/09 13:09:28;;;;;;;6.28;3.60;;;;;;;16.59;45.10;102462.50;4992447;28;20189;-72
2021/10/09 13:11:59;;;;;;;6.90;3.88;;;;;;;16.65;44.46;102456.78;4941992;28;20320;-75
2021/10/09 13:14:24;;;;;;;5.53;3.60;;;;;;;16.83;46.02;102463.72;4992396;28;20284;-73
2021/10/09 13:16:53;;;;;;;6.80;3.63;;;;;;;16.91;46.82;102464.03;5008124;28;20785;-73
2021/10/09 13:19:18;;;;;;;7.40;3.80;;;;;;;16.76;43.92;102461.22;4979661;28;20189;-72
2021/10/09 13:21:44;;;;;;;8.43;3.87;;;;;;;16.80;44.56;102454.09;4976895;28;20726;-74
2021/10/09 13:24:09;;;;;;;7.65;3.67;;;;;;;16.93;46.86;102456.34;4959535;28;20580;-73
2021/10/09 13:26:35;;;;;;;6.97;3.78;;;;;;;16.95;45.66;102454.16;4957847;28;20223;-72
2021/10/09 13:29:01;;;;;;;7.10;3.60;;;;;;;16.87;44.90;102451.94;4995360;28;20185;-74
2021/10/09 13:31:26;;;;;;;6.25;3.70;;;;;;;16.87;46.03;102454.69;4980715;28;20268;-73
2021/10/09 13:33:57;;;;;;;8.02;4.13;;;;;;;16.47;46.82;102450.94;4972272;28;20193;-75
2021/10/09 13:36:23;;;;;;;7.20;3.75;;;;;;;16.47;47.98;102450.13;5004623;28;20267;-75
2021/10/09 13:38:51;;;;;;;7.07;3.95;;;;;;;16.68;47.21;102450.78;4976009;28;20177;-73